Saturday, November 01, 2014
00:34 UTC
  |  Log In   |  Register Free
Airport Search:

Corpus Christi International Airport
(KCRP)

FAA data valid effective September 18, 2014 - November 13, 2014 (unless otherwise noted).

 
 
 
 
 
 
 
 
 
 
 
 
 
 

Current Aviation Weather for Corpus Christi International Airport (KCRP)

The most recent METAR observation for KCRP was updated at: 0009
METAR Summary (Translated METAR)
KCRP
312351Z 01007KT 10SM FEW170 SCT250 22/11 A3017 RMK AO2 SLP214 T02170111 10272 20217 53006
KRBO
312335Z AUTO 35006KT 7SM +RA CLR 23/13 A3017 RMK AO2 T02260130
(10.1 nm NW from KCRP)
KNGP
312356Z 03013KT 10SM FEW140 FEW250 24/08 A3016 RMK AO2 SLP213 T02390083 10267 20233 53007
(12.1 nm SE from KCRP)
TAF Summary (Translated TAF)
KCRP
311729Z 3118/0118 01012KT P6SM BKN050 OVC200 FM312100 03014G20KT P6SM SCT100 FM010200 02005KT P6SM SKC FM011500 04015G18KT P6SM SCT020
KNGP
(12.1 nm SE from KCRP)
3123/0123 05013KT 9999 FEW140 SCT250 QNH3013INS BECMG 0101/0103 04016G22KT 9999 FEW250 QNH3016INS TEMPO 0103/0108 03017G24KT BECMG 0109/0111 04014G20KT BECMG 0113/0115 05013G18KT 9999 SCT020 SCT250 QNH3020INS BECMG 0117/0119 08014G18KT 9999 SCT025 SCT250 QNH3028INS BECMG 0121/0123 09015G20KT 9999 FEW025 SCT250 QNH3025INS AUTOMATED SENSOR METWATCH 0100 TIL 0312 T15/0112Z T21/0121Z FN00003
  Airport Weather Conditions for KCRP

 Current Weather at CRP
71° F
Partly Cloudy
North winds at 8.1 mph
CRP NOAA Radar

Pressure: 30.17 in
Humidity: 51%
Wind: North at 8.1 MPH (7 KT)
Dew Point: 52.0°F
Visibility: 10.00 mi


Airport Weather Forecast for KCRP

Translated METAR and TAF for KCRP
Translated METAR for KCRP (0029 UTC 01 November 2014)
found at http://aviationweather.gov/adds/metars/
 
METAR text: KCRP 312351Z 01007KT 10SM FEW170 SCT250 22/11 A3017 RMK AO2 SLP214 T02170111 10272 20217 53006
Conditions at: KCRP (CORPUS CHRISTI , TX, US) observed 2351 UTC 31 October 2014
Temperature: 21.7°C (71°F)
Dewpoint: 11.1°C (52°F) [RH = 51%]
Pressure (altimeter): 30.17 inches Hg (1021.8 mb)
[Sea-level pressure: 1021.4 mb]
Winds: from the N (10 degrees) at 8 MPH (7 knots; 3.6 m/s)
Visibility: 10 or more miles (16+ km)
Ceiling: at least 12,000 feet AGL
Clouds: few clouds at 17000 feet AGL
scattered clouds at 25000 feet AGL
Weather: no significant weather observed at this time
Translated TAF for KCRP
Forecast for: KCRP (CORPUS CHRISTI , TX, US)
TAF Text: KCRP 312320Z 0100/0124 03008KT P6SM SKC
Forecast period: 0000 to 1800 UTC 01 November 2014
Forecast type: FROM: standard forecast or significant change
Winds: from the NNE (30 degrees) at 9 MPH (8 knots; 4.2 m/s)
Visibility: 6 or more miles (10+ km)
Clouds: clear skies
Weather: no significant weather forecast for this period
TAF Text: FM011800 08012G18KT P6SM SCT035
Forecast period: 1800 UTC 01 November 2014 to 0000 UTC 02 November 2014
Forecast type: FROM: standard forecast or significant change
Winds: from the E (80 degrees) at 14 MPH (12 knots; 6.2 m/s)
gusting to 21 MPH (18 knots; 9.4 m/s)
Visibility: 6 or more miles (10+ km)
Clouds: scattered clouds at 3500 feet AGL
Weather: no significant weather forecast for this period

Find All Airport Services Find A Hotel Find A Rental Car Find A Golf Course Find A Restaurant $100 Hamburger



FBO's on the Field
FBO Company Facility Photos Services Transportation Aviation Fuel Prices: Prices include tax
Catering Weather Repair Courtesy Rental Type 100LL JetA JetA+ MOGAS 8087
 
Atlantic Aviation

This FBO has not yet been rated
FS:Chevron
Last Updated: Oct-31
Login to update fuel prices
SS:
Contact Atlantic AviationMore FBO Information
 
Signature Flight Support

This FBO has not yet been rated
FS:Avfuel
Last Updated: Oct-31
Login to update fuel prices
SS:
Contact Signature Flight SupportMore FBO Information
 
Add another FBO Facility Photos Catering Weather Repair Courtesy Rental Type 100LL JetA JetA+ MOGAS 8087
Services Transportation Aviation Fuel Prices: Prices include tax


model-print
model-print
model-print
model-print